Time;durP1;ratioP1;P1;durP2;ratioP2;P2;SDS_P1;SDS_P2;PMS_P1;PMS_P2;Temp;Humidity;BMP_temperature;BMP_pressure;BME280_temperature;BME280_humidity;BME280_pressure;Samples;Min_cycle;Max_cycle;Signal;HPM_P1;HPM_P2
2022/10/04 00:00:35;;;;;;;;;25.00;22.00;;;;;15.27;69.88;-159.44;4998728;28;46711;-88
2022/10/04 00:03:17;;;;;;;;;26.00;24.67;;;;;15.33;69.77;-4983.41;4999398;27;45442;-88
2022/10/04 00:05:49;;;;;;;;;30.33;28.00;;;;;15.13;69.47;-2797.13;4992459;28;45607;-88
2022/10/04 00:08:55;;;;;;;;;31.00;25.33;;;;;15.32;69.39;-5869.56;4999870;28;45584;-88
2022/10/04 00:11:30;;;;;;;;;25.00;23.67;;;;;15.29;69.35;-6123.00;4997503;27;46130;-88
2022/10/04 00:13:58;;;;;;;;;24.00;19.67;;;;;15.31;69.46;-7009.03;4991540;27;46046;-87
2022/10/04 00:16:30;;;;;;;;;31.00;28.33;;;;;15.19;69.23;-6739.19;4997936;27;45448;-88
2022/10/04 00:19:14;;;;;;;;;27.33;25.67;;;;;15.13;70.14;1041.28;4992444;27;45552;-88
2022/10/04 00:22:07;;;;;;;;;30.67;26.33;;;;;15.04;69.85;-296.63;4985167;28;45517;-87
2022/10/04 00:24:34;;;;;;;;;26.67;25.67;;;;;15.17;69.49;-5759.19;5034263;27;45528;-88
2022/10/04 00:27:21;;;;;;;;;29.00;25.67;;;;;15.01;69.34;-8777.59;4988039;27;45548;-88
2022/10/04 00:30:22;;;;;;;;;32.00;27.67;;;;;15.12;69.42;-7112.34;4994470;27;45386;-88
2022/10/04 00:33:05;;;;;;;;;31.67;27.00;;;;;15.08;69.46;-5011.44;5059980;27;47175;-88
2022/10/04 00:35:47;;;;;;;;;34.00;26.67;;;;;15.06;69.88;161.44;4990533;27;45519;-88
2022/10/04 00:38:15;;;;;;;;;28.67;27.00;;;;;15.04;69.22;-6430.09;5004000;27;45540;-87
2022/10/04 00:41:06;;;;;;;;;27.00;25.67;;;;;15.12;69.41;-5664.91;4999651;27;45474;-88
2022/10/04 00:43:39;;;;;;;;;30.00;27.00;;;;;15.02;69.47;-7349.34;5002644;27;46392;-88
2022/10/04 00:46:12;;;;;;;;;31.67;28.00;;;;;15.08;69.50;-7509.09;5002209;27;45552;-87
2022/10/04 00:48:55;;;;;;;;;32.67;25.33;;;;;15.02;69.04;-7874.28;4997141;27;45563;-88
2022/10/04 00:51:42;;;;;;;;;31.33;30.00;;;;;15.04;69.49;-5816.09;5001895;27;45372;-89
2022/10/04 00:54:10;;;;;;;;;34.67;28.33;;;;;15.01;69.32;-4532.97;5006868;27;45539;-88
2022/10/04 00:56:44;;;;;;;;;27.33;25.33;;;;;14.99;69.44;-3968.38;5003821;27;45768;-89
2022/10/04 00:59:37;;;;;;;;;34.33;29.00;;;;;14.98;69.57;-3066.53;5009884;27;45513;-89
2022/10/04 01:02:43;;;;;;;;;30.33;27.67;;;;;14.94;69.40;-3986.63;4983181;28;45507;-89
2022/10/04 01:05:16;;;;;;;;;30.33;28.00;;;;;14.88;69.38;-5517.69;5000573;27;45477;-88
2022/10/04 01:07:47;;;;;;;;;32.00;29.00;;;;;14.93;69.32;-6210.09;5007359;27;45555;-89
2022/10/04 01:11:05;;;;;;;;;31.00;28.67;;;;;14.88;69.45;-5763.22;4999984;27;45460;-88
2022/10/04 01:13:38;;;;;;;;;29.00;29.00;;;;;14.83;69.41;-4686.72;4980816;27;45420;-89
2022/10/04 01:16:10;;;;;;;;;37.33;30.00;;;;;14.73;69.81;-3484.69;5006088;28;47569;-89
2022/10/04 01:18:36;;;;;;;;;35.67;30.00;;;;;14.82;69.79;-3301.78;5005278;27;45369;-89
2022/10/04 01:21:08;;;;;;;;;28.00;25.67;;;;;14.78;69.46;-5209.09;5000004;27;45349;-89
2022/10/04 01:23:41;;;;;;;;;29.00;29.00;;;;;14.64;69.46;-5561.16;4986555;27;45506;-89
2022/10/04 01:26:30;;;;;;;;;33.00;29.00;;;;;14.79;69.31;-6159.81;4999810;27;45595;-89
2022/10/04 01:28:57;;;;;;;;;34.00;31.00;;;;;14.62;69.30;-4866.44;4989880;27;45514;-89
2022/10/04 01:31:25;;;;;;;;;30.33;27.00;;;;;14.71;69.67;-4830.13;5001637;27;45396;-89
2022/10/04 01:33:51;;;;;;;;;34.00;28.67;;;;;14.70;69.43;-4615.91;5009875;27;45465;-89
2022/10/04 01:36:17;;;;;;;;;30.00;27.33;;;;;14.75;69.66;-4558.53;4981283;28;48525;-89
2022/10/04 01:38:42;;;;;;;;;28.67;28.67;;;;;14.78;69.50;-4096.16;4996217;27;45591;-89
2022/10/04 01:41:10;;;;;;;;;33.00;29.67;;;;;14.74;69.73;-1600.16;5003576;27;45506;-89
2022/10/04 01:43:40;;;;;;;;;31.00;29.00;;;;;14.75;69.73;-1702.13;5007422;27;45471;-88
2022/10/04 01:46:15;;;;;;;;;32.67;29.67;;;;;14.74;69.66;-1351.81;4993590;27;45672;-88
2022/10/04 01:48:44;;;;;;;;;30.00;27.67;;;;;14.76;69.82;-1597.50;5003662;27;45559;-88
2022/10/04 01:51:16;;;;;;;;;31.00;29.00;;;;;14.77;69.77;-384.13;5000502;27;45615;-72
2022/10/04 01:53:53;;;;;;;;;30.00;24.33;;;;;14.76;69.84;-405.13;5008849;28;45452;-72
2022/10/04 01:56:23;;;;;;;;;30.33;28.67;;;;;14.76;69.84;-1194.88;4983137;28;48724;-72
2022/10/04 01:58:52;;;;;;;;;30.00;27.00;;;;;14.78;69.74;-410.25;4981030;28;45486;-72
2022/10/04 02:01:27;;;;;;;;;23.33;21.00;;;;;14.76;69.64;-3095.31;4995507;27;45518;-72
2022/10/04 02:04:01;;;;;;;;;32.67;30.00;;;;;14.72;69.40;-5360.38;5002179;27;45489;-72
2022/10/04 02:06:34;;;;;;;;;35.33;32.00;;;;;14.68;69.43;-5185.25;5001245;27;47182;-72
2022/10/04 02:09:08;;;;;;;;;27.00;25.33;;;;;14.61;69.41;-5307.75;5000417;27;45529;-72
2022/10/04 02:11:35;;;;;;;;;33.00;29.67;;;;;14.71;69.20;-6475.38;5002149;27;46367;-72
2022/10/04 02:14:01;;;;;;;;;29.67;26.67;;;;;14.69;69.27;-7313.25;4999879;27;45463;-72
2022/10/04 02:16:27;;;;;;;;;29.67;27.67;;;;;14.67;69.30;-9419.00;4994267;27;46489;-72
2022/10/04 02:18:53;;;;;;;;;29.00;27.67;;;;;14.63;69.25;-9076.84;4985530;28;46205;-72
2022/10/04 02:21:21;;;;;;;;;27.00;26.00;;;;;14.62;69.01;-9368.94;4994942;27;45497;-72
2022/10/04 02:23:48;;;;;;;;;29.00;27.33;;;;;14.46;69.28;-8699.69;5005832;27;45478;-72
2022/10/04 02:26:13;;;;;;;;;30.33;25.33;;;;;14.61;68.83;-11551.50;5002494;27;46335;-72
2022/10/04 02:28:39;;;;;;;;;28.67;27.67;;;;;14.61;68.92;-13628.78;4979180;27;45593;-72
2022/10/04 02:33:52;;;;;;;;;35.33;29.67;;;;;14.12;70.01;1936.28;5007788;27;45447;-72
2022/10/04 02:36:23;;;;;;;;;29.00;25.67;;;;;14.45;69.60;-2868.09;4998060;27;46250;-72
2022/10/04 02:39:02;;;;;;;;;25.00;24.00;;;;;14.50;69.20;-9795.44;4994927;27;45511;-72
2022/10/04 02:41:38;;;;;;;;;31.67;30.00;;;;;14.54;69.31;-10969.28;4996620;27;45341;-72
2022/10/04 02:44:40;;;;;;;;;28.00;25.67;;;;;14.33;68.71;-14488.84;5007607;27;45366;-72
2022/10/04 02:47:12;;;;;;;;;27.33;24.33;;;;;14.55;68.64;-15883.47;5009937;28;47065;-72
2022/10/04 02:49:51;;;;;;;;;33.67;27.67;;;;;14.42;68.36;-16747.66;4999794;27;45357;-72
2022/10/04 02:52:29;;;;;;;;;27.00;24.67;;;;;14.52;68.41;-16541.63;5006083;27;45540;-87
2022/10/04 02:55:03;;;;;;;;;31.33;29.67;;;;;14.49;68.16;-16749.13;5006410;27;45670;-86
2022/10/04 02:57:32;;;;;;;;;32.33;27.33;;;;;14.48;68.22;-18209.00;5005090;27;46484;-86
2022/10/04 03:00:15;;;;;;;;;31.33;29.33;;;;;14.45;68.27;-17784.03;4975874;28;46068;-86
2022/10/04 03:03:01;;;;;;;;;30.67;25.00;;;;;14.35;68.43;-17792.16;5003446;27;45356;-86
2022/10/04 03:05:27;;;;;;;;;29.67;27.67;;;;;14.42;68.34;-17411.31;4979521;28;45726;-86
2022/10/04 03:07:52;;;;;;;;;31.00;28.33;;;;;14.39;68.33;-17478.16;5006346;27;45681;-85
2022/10/04 03:10:18;;;;;;;;;29.33;28.00;;;;;14.36;68.83;-15551.59;4976596;28;45747;-85
2022/10/04 03:12:43;;;;;;;;;31.00;27.00;;;;;14.38;68.20;-16101.19;5006736;27;45404;-86
2022/10/04 03:15:10;;;;;;;;;26.67;23.33;;;;;14.38;68.44;-16470.78;4995776;27;45536;-86
2022/10/04 03:17:35;;;;;;;;;30.00;25.33;;;;;14.33;68.34;-17195.97;5010113;27;45465;-86
2022/10/04 03:20:04;;;;;;;;;30.67;28.67;;;;;14.37;68.33;-16993.78;5005951;27;45412;-86
2022/10/04 03:22:30;;;;;;;;;27.00;25.33;;;;;14.38;68.38;-17779.75;5006299;27;45451;-86
2022/10/04 03:24:57;;;;;;;;;30.00;27.33;;;;;14.36;68.12;-18016.16;5001600;27;45488;-86
2022/10/04 03:27:31;;;;;;;;;32.33;29.33;;;;;14.34;67.96;-17867.38;5001974;27;46221;-86
2022/10/04 03:29:58;;;;;;;;;24.67;20.67;;;;;14.33;68.20;-18083.19;5006402;27;45494;-86
2022/10/04 03:32:24;;;;;;;;;27.33;23.00;;;;;14.26;68.29;-18687.50;5012806;27;45353;-86
2022/10/04 03:34:55;;;;;;;;;30.33;30.00;;;;;14.28;68.14;-18641.19;4986201;28;45623;-86
2022/10/04 03:37:21;;;;;;;;;33.33;28.00;;;;;14.17;68.04;-18794.28;4981760;28;46541;-87
2022/10/04 03:39:49;;;;;;;;;33.33;28.00;;;;;14.07;68.30;-17083.34;4993350;28;45341;-86
2022/10/04 03:42:16;;;;;;;;;29.33;25.00;;;;;14.23;68.18;-18447.47;4993746;27;45364;-86
2022/10/04 03:44:45;;;;;;;;;29.00;28.33;;;;;14.22;68.16;-18223.41;5003826;28;45457;-86
2022/10/04 03:47:16;;;;;;;;;31.00;25.00;;;;;14.23;68.34;-17526.66;5002412;27;45530;-86
2022/10/04 03:49:44;;;;;;;;;26.67;26.33;;;;;14.21;68.18;-17817.53;4995089;27;45600;-86
2022/10/04 03:52:36;;;;;;;;;31.67;27.33;;;;;14.20;67.99;-18782.06;4978187;28;45645;-72
2022/10/04 03:55:06;;;;;;;;;37.67;29.33;;;;;14.16;68.17;-18417.09;4996354;28;45618;-72
2022/10/04 03:57:32;;;;;;;;;25.67;23.00;;;;;14.18;68.10;-18350.00;5006595;28;45325;-72
2022/10/04 03:59:59;;;;;;;;;21.67;19.67;;;;;14.17;68.20;-19155.84;4999904;28;45314;-72
2022/10/04 04:02:38;;;;;;;;;32.00;30.00;;;;;14.20;67.91;-19590.06;4982943;28;45375;-72
2022/10/04 04:05:23;;;;;;;;;30.67;27.00;;;;;14.19;67.59;-19589.94;4998286;27;45489;-72
2022/10/04 04:08:00;;;;;;;;;34.33;31.00;;;;;14.21;67.74;-19590.31;4990127;27;45683;-72
2022/10/04 04:10:33;;;;;;;;;35.33;30.00;;;;;14.17;67.86;-19501.66;5002637;27;45505;-72
2022/10/04 04:13:10;;;;;;;;;34.33;28.33;;;;;14.16;67.85;-19589.13;5003397;27;45427;-72
2022/10/04 04:15:41;;;;;;;;;32.00;28.67;;;;;14.18;67.78;-19589.66;4979293;28;45361;-72
2022/10/04 04:18:18;;;;;;;;;34.00;30.00;;;;;14.17;67.82;-19589.25;5001181;27;45950;-72
2022/10/04 04:20:45;;;;;;;;;37.67;30.67;;;;;14.15;67.89;-19345.13;5001170;27;45400;-72
2022/10/04 04:23:13;;;;;;;;;35.67;29.33;;;;;14.13;68.07;-18845.53;4981190;28;45375;-72
2022/10/04 04:25:44;;;;;;;;;37.00;31.33;;;;;14.08;67.97;-19039.09;4996750;27;45493;-72
2022/10/04 04:28:31;;;;;;;;;30.67;27.00;;;;;14.06;67.98;-18939.81;4973620;28;47115;-72
2022/10/04 04:31:12;;;;;;;;;33.00;25.67;;;;;14.02;68.07;-19040.28;4992905;27;45473;-72
2022/10/04 04:33:50;;;;;;;;;32.67;27.00;;;;;13.95;67.30;-19459.50;5000062;27;45334;-72
2022/10/04 04:36:16;;;;;;;;;31.00;29.67;;;;;14.00;67.88;-19190.53;5000952;27;45451;-72
2022/10/04 04:41:30;;;;;;;;;26.00;23.67;;;;;13.92;67.93;-18621.94;5007382;27;45460;-72
2022/10/04 04:43:55;;;;;;;;;27.33;22.33;;;;;13.93;68.10;-18481.69;4987524;27;45449;-72
2022/10/04 04:46:21;;;;;;;;;26.67;23.33;;;;;13.91;68.13;-18535.78;4987493;28;45503;-72
2022/10/04 04:48:53;;;;;;;;;17.67;17.67;;;;;14.01;67.90;-19024.28;5004106;27;46203;-72
2022/10/04 04:51:21;;;;;;;;;27.00;23.33;;;;;13.96;68.18;-18435.53;4978361;27;45844;-72
2022/10/04 04:53:48;;;;;;;;;22.00;20.67;;;;;13.94;67.93;-17852.91;4998941;27;45692;-72
2022/10/04 04:56:18;;;;;;;;;20.67;20.33;;;;;13.92;68.27;-16960.53;5004539;27;45576;-72
2022/10/04 04:58:46;;;;;;;;;24.67;22.00;;;;;13.84;68.08;-15530.88;5011070;27;46196;-72
2022/10/04 05:01:34;;;;;;;;;31.33;27.33;;;;;13.87;68.43;-15435.22;4990986;27;45570;-72
2022/10/04 05:04:08;;;;;;;;;26.00;24.00;;;;;13.86;68.33;-17005.88;5006552;27;45307;-72
2022/10/04 05:06:37;;;;;;;;;14.00;12.00;;;;;13.85;68.20;-17889.63;4999257;27;45453;-72
2022/10/04 05:09:04;;;;;;;;;27.33;23.00;;;;;13.86;68.10;-17265.91;5005369;27;47130;-72
2022/10/04 05:11:39;;;;;;;;;27.67;23.67;;;;;13.58;68.08;-15986.00;4991746;27;45690;-72
2022/10/04 05:14:13;;;;;;;;;25.00;23.00;;;;;13.76;68.46;-15537.03;4996431;27;45483;-72
2022/10/04 05:16:41;;;;;;;;;26.00;22.67;;;;;13.84;68.33;-16266.91;4996217;27;45401;-72
2022/10/04 05:19:14;;;;;;;;;27.67;21.00;;;;;13.71;68.21;-16552.84;4993690;27;46283;-74
2022/10/04 05:21:45;;;;;;;;;21.33;19.00;;;;;13.72;68.26;-16789.66;5008376;27;45334;-73
2022/10/04 05:24:22;;;;;;;;;22.67;20.00;;;;;13.69;68.25;-18369.38;5069401;27;45380;-73
2022/10/04 05:26:54;;;;;;;;;17.33;15.33;;;;;13.64;68.25;-18394.09;5000151;27;45534;-75
2022/10/04 05:29:25;;;;;;;;;25.67;21.33;;;;;13.77;68.05;-19298.81;4997457;27;45726;-75
2022/10/04 05:32:26;;;;;;;;;21.00;19.00;;;;;13.78;67.91;-19441.97;4995455;27;45823;-75
2022/10/04 05:34:53;;;;;;;;;23.67;23.33;;;;;13.65;68.24;-18199.34;4992563;27;45751;-78
2022/10/04 05:37:30;;;;;;;;;17.33;16.33;;;;;13.30;69.00;-3835.91;5009787;27;45667;-74
2022/10/04 05:40:04;;;;;;;;;24.00;18.67;;;;;13.61;68.87;-7543.22;4997477;27;46163;-73
2022/10/04 05:42:43;;;;;;;;;21.67;21.67;;;;;13.57;68.32;-15949.28;4979919;27;45647;-77
2022/10/04 05:45:19;;;;;;;;;21.00;15.00;;;;;13.70;68.37;-16526.63;5001424;27;45781;-74
2022/10/04 05:47:52;;;;;;;;;18.67;16.67;;;;;13.67;68.46;-14931.97;4984297;27;45650;-73
2022/10/04 05:50:40;;;;;;;;;21.67;20.00;;;;;13.68;68.39;-15863.28;5010322;28;46236;-74
2022/10/04 05:53:32;;;;;;;;;20.67;18.00;;;;;13.68;68.30;-16456.00;4986500;27;45472;-74
2022/10/04 05:56:21;;;;;;;;;24.00;20.00;;;;;13.64;68.39;-17185.56;4994489;27;45527;-74
2022/10/04 05:59:24;;;;;;;;;27.33;26.33;;;;;13.61;68.57;-14873.59;5005073;27;45460;-72
2022/10/04 06:02:04;;;;;;;;;26.00;24.67;;;;;13.51;68.77;-9141.84;4996951;27;45445;-73
2022/10/04 06:04:55;;;;;;;;;27.00;26.67;;;;;13.49;68.79;-11601.63;4994872;28;45777;-72
2022/10/04 06:07:57;;;;;;;;;24.33;22.67;;;;;13.48;68.88;-10216.84;4987195;28;45433;-73
2022/10/04 06:10:47;;;;;;;;;29.00;26.67;;;;;13.46;68.87;-8339.25;5021167;28;45455;-73
2022/10/04 06:13:33;;;;;;;;;31.33;26.67;;;;;13.48;69.18;-7795.00;5011793;28;45446;-73
2022/10/04 06:16:12;;;;;;;;;27.33;23.33;;;;;12.70;70.62;20443.06;5052371;28;45398;-71
2022/10/04 06:19:05;;;;;;;;;28.33;25.00;;;;;12.82;70.65;22886.25;5004680;28;45420;-72
2022/10/04 06:21:46;;;;;;;;;24.00;23.33;;;;;12.75;71.08;24338.84;5014067;28;45402;-72
2022/10/04 06:24:20;;;;;;;;;26.00;23.33;;;;;12.67;71.27;26516.19;5054701;28;45398;-73
2022/10/04 06:26:52;;;;;;;;;28.00;24.33;;;;;12.74;71.53;28199.72;5048227;28;45467;-74
2022/10/04 06:29:26;;;;;;;;;31.33;26.00;;;;;12.73;71.61;29607.03;4959737;28;45450;-74
2022/10/04 06:32:07;;;;;;;;;28.33;26.67;;;;;12.73;72.27;31049.25;4950818;28;45520;-73
2022/10/04 06:34:50;;;;;;;;;29.33;28.67;;;;;12.72;71.74;29997.66;4960784;28;45629;-74
2022/10/04 06:37:39;;;;;;;;;25.00;22.00;;;;;12.83;71.56;22390.78;4956225;28;45445;-74
2022/10/04 06:40:59;;;;;;;;;28.67;26.67;;;;;12.73;72.25;32644.75;4952306;28;45571;-74
2022/10/04 06:43:37;;;;;;;;;28.00;26.00;;;;;12.72;72.35;32762.78;5005482;28;45566;-74
2022/10/04 06:46:23;;;;;;;;;31.33;27.00;;;;;12.51;72.84;34895.84;4965360;28;46228;-73
2022/10/04 06:49:10;;;;;;;;;41.00;32.00;;;;;13.09;72.94;35197.50;4932031;28;45361;-74
2022/10/04 06:51:48;;;;;;;;;35.00;30.00;;;;;13.43;71.25;10701.41;4991378;28;45531;-74
2022/10/04 06:54:30;;;;;;;;;30.00;29.67;;;;;13.55;70.35;3023.44;4926039;28;45544;-74
2022/10/04 06:57:14;;;;;;;;;31.67;28.33;;;;;13.65;70.34;-1297.56;4977317;28;45523;-74
2022/10/04 06:59:52;;;;;;;;;33.00;31.33;;;;;13.75;69.56;-7447.75;4927472;28;45619;-74
2022/10/04 07:02:24;;;;;;;;;34.33;31.00;;;;;13.81;69.82;-6413.25;4938950;28;45465;-73
2022/10/04 07:05:11;;;;;;;;;32.33;29.33;;;;;13.82;69.77;-6431.56;4922796;28;45870;-74
2022/10/04 07:07:40;;;;;;;;;31.33;28.33;;;;;13.85;69.74;-5785.06;4932135;28;47545;-74
2022/10/04 07:10:33;;;;;;;;;25.00;22.00;;;;;13.99;69.34;-9180.22;4938999;28;45386;-74
2022/10/04 07:13:30;;;;;;;;;28.00;27.67;;;;;13.88;69.49;-9856.66;4931338;28;45613;-74
2022/10/04 07:16:08;;;;;;;;;34.00;29.67;;;;;14.08;69.51;-10536.25;4944867;28;45653;-72
2022/10/04 07:18:49;;;;;;;;;34.00;30.33;;;;;14.06;69.40;-10197.34;4954637;28;46742;-73
2022/10/04 07:21:17;;;;;;;;;30.33;29.67;;;;;14.02;69.83;-5373.59;5002216;27;45503;-71
2022/10/04 07:23:55;;;;;;;;;40.50;34.25;;;;;14.08;69.90;-3210.28;4987401;27;45463;-72
2022/10/04 07:26:45;;;;;;;;;41.00;33.00;;;;;14.18;69.71;-7943.63;4976379;27;45334;-72
2022/10/04 07:29:19;;;;;;;;;43.33;35.33;;;;;14.21;69.71;-4515.59;5037946;27;46641;-72
2022/10/04 07:31:50;;;;;;;;;38.67;32.67;;;;;14.26;69.61;-6282.53;5012010;27;45391;-73
2022/10/04 07:34:26;;;;;;;;;38.00;32.33;;;;;14.24;69.31;-11473.69;4998338;28;45430;-72
2022/10/04 07:36:56;;;;;;;;;36.00;30.33;;;;;14.39;69.47;-8537.34;4991136;27;45435;-73
2022/10/04 07:39:30;;;;;;;;;35.67;29.00;;;;;14.50;69.52;-7038.03;5000243;28;47471;-73
2022/10/04 07:42:14;;;;;;;;;27.33;26.00;;;;;14.63;69.34;-11345.81;5000878;27;45520;-72
2022/10/04 07:44:44;;;;;;;;;35.67;28.33;;;;;14.74;69.39;-10841.34;5000257;27;45620;-72
2022/10/04 07:47:19;;;;;;;;;34.33;27.33;;;;;14.83;69.07;-14969.47;4998242;27;45303;-73
2022/10/04 07:49:48;;;;;;;;;30.67;27.67;;;;;14.86;68.67;-17027.97;5006267;27;46553;-73
2022/10/04 07:52:35;;;;;;;;;47.75;37.25;;;;;15.03;68.47;-17526.63;5008323;27;45496;-77
2022/10/04 07:55:27;;;;;;;;;60.75;49.25;;;;;15.07;68.71;-18522.53;4993978;27;45318;-77
2022/10/04 07:58:30;;;;;;;;;43.00;34.00;;;;;15.11;68.56;-19613.97;4989227;28;45457;-79
2022/10/04 08:01:05;;;;;;;;;31.00;30.67;;;;;15.20;68.54;-18340.97;4987935;28;45365;-77
2022/10/04 08:03:59;;;;;;;;;37.33;31.67;;;;;15.27;68.55;-18308.69;4996824;27;45539;-77
2022/10/04 08:06:30;;;;;;;;;41.00;30.00;;;;;15.46;68.69;-17567.75;4996431;27;45246;-77
2022/10/04 08:09:01;;;;;;;;;28.67;28.00;;;;;15.68;67.85;-19176.03;4997223;27;45446;-77
2022/10/04 08:11:36;;;;;;;;;33.67;30.00;;;;;15.85;68.48;-19086.47;4996335;27;46145;-77
2022/10/04 08:14:26;;;;;;;;;35.33;31.33;;;;;15.97;68.02;-19636.50;4996327;27;45475;-77
2022/10/04 08:17:10;;;;;;;;;33.33;28.67;;;;;16.10;67.96;-19639.84;4996799;27;45384;-77
2022/10/04 08:20:04;;;;;;;;;42.00;35.25;;;;;16.19;68.19;-19546.53;4996935;27;45341;-77
2022/10/04 08:22:47;;;;;;;;;48.50;39.00;;;;;16.29;67.91;-19644.81;4997567;28;47340;-77
2022/10/04 08:25:41;;;;;;;;;45.00;37.50;;;;;16.41;67.77;-19648.16;4997267;28;45609;-77
2022/10/04 08:31:09;;;;;;;;;44.67;36.33;;;;;16.63;67.61;-19653.91;4978092;28;45516;-76
2022/10/04 08:34:11;;;;;;;;;45.33;37.67;;;;;16.77;67.88;-19657.41;4977290;28;46277;-77
2022/10/04 08:37:20;;;;;;;;;47.67;38.67;;;;;16.83;67.44;-19659.00;4977373;28;45380;-77
2022/10/04 08:40:07;;;;;;;;;38.67;33.67;;;;;17.01;66.81;-19663.69;4977709;28;45451;-77
2022/10/04 08:42:54;;;;;;;;;40.67;35.67;;;;;17.11;66.91;-19666.38;4977134;28;45431;-77
2022/10/04 08:45:44;;;;;;;;;30.00;28.67;;;;;17.26;66.27;-19670.25;4977064;28;47054;-77
2022/10/04 08:48:44;;;;;;;;;40.00;34.67;;;;;17.36;66.16;-19672.78;4976648;28;45404;-77
2022/10/04 08:51:39;;;;;;;;;38.00;30.00;;;;;17.41;66.96;-19674.13;4977081;28;45563;-77
2022/10/04 08:54:10;;;;;;;;;31.67;28.67;;;;;17.55;65.71;-19677.88;4977517;28;45440;-73
2022/10/04 08:57:09;;;;;;;;;32.33;32.33;;;;;17.68;65.52;-19681.22;4976098;28;47760;-72
2022/10/04 08:59:50;;;;;;;;;34.67;31.33;;;;;17.70;64.77;-19681.91;5024639;28;45509;-73
2022/10/04 09:02:29;;;;;;;;;29.67;28.00;;;;;17.76;64.93;-19683.22;5045869;28;45472;-72
2022/10/04 09:05:21;;;;;;;;;34.33;27.33;;;;;17.86;65.16;-19685.91;5040117;28;45529;-73
2022/10/04 09:08:09;;;;;;;;;28.33;26.33;;;;;17.98;65.04;-19689.13;5032620;28;47409;-73
2022/10/04 09:11:11;;;;;;;;;39.33;30.00;;;;;18.07;64.77;-19691.41;4983198;27;45476;-73
2022/10/04 09:13:56;;;;;;;;;32.67;28.33;;;;;18.14;64.86;-19693.41;4996086;27;45366;-73
2022/10/04 09:16:34;;;;;;;;;26.00;21.33;;;;;18.22;64.64;-19695.28;4978736;28;45540;-73
2022/10/04 09:19:42;;;;;;;;;30.00;25.67;;;;;18.33;64.72;-19698.22;4995805;27;46426;-73
2022/10/04 09:22:38;;;;;;;;;23.33;20.33;;;;;18.46;64.92;-19701.69;4978229;28;45291;-72
2022/10/04 09:25:21;;;;;;;;;25.67;23.33;;;;;18.65;64.17;-19706.50;5000300;27;45351;-72
2022/10/04 09:28:02;;;;;;;;;28.33;21.67;;;;;18.91;64.03;-19713.31;4996036;27;45492;-73
2022/10/04 09:30:52;;;;;;;;;25.33;20.33;;;;;19.30;63.54;-19723.59;5019573;27;45586;-73
2022/10/04 09:33:41;;;;;;;;;25.67;23.67;;;;;19.93;62.33;-19740.00;5025481;27;46206;-73
2022/10/04 09:36:28;;;;;;;;;26.00;22.33;;;;;20.78;60.26;-19762.16;5016677;27;45470;-73
2022/10/04 09:39:11;;;;;;;;;25.33;23.33;;;;;22.29;58.85;-19801.28;4996490;28;45322;-73
2022/10/04 09:41:51;;;;;;;;;25.00;23.00;;;;;24.07;54.93;-19847.38;4981066;27;47370;-73
2022/10/04 09:44:44;;;;;;;;;26.00;22.33;;;;;25.57;51.31;-19886.34;4985701;27;45466;-73
2022/10/04 09:47:42;;;;;;;;;22.67;21.00;;;;;26.50;49.32;-19910.41;4998774;27;45385;-73
2022/10/04 09:50:23;;;;;;;;;19.67;19.67;;;;;27.01;48.42;-19923.50;4985342;27;45695;-74
2022/10/04 09:53:13;;;;;;;;;16.67;14.33;;;;;28.47;46.08;-19961.13;4991542;27;47063;-74
2022/10/04 09:56:03;;;;;;;;;17.00;13.00;;;;;29.59;43.46;-19989.84;4976119;28;45806;-73
2022/10/04 09:58:35;;;;;;;;;9.67;6.67;;;;;30.63;41.85;-20016.53;4989310;28;45401;-74
2022/10/04 10:01:23;;;;;;;;;15.67;12.67;;;;;31.53;40.08;-20039.78;5000177;28;45564;-73
2022/10/04 10:04:43;;;;;;;;;15.33;12.00;;;;;32.52;39.30;-20065.09;4984130;27;45565;-75
2022/10/04 10:07:45;;;;;;;;;12.33;12.00;;;;;33.73;36.48;-20095.97;5003203;28;45506;-74
2022/10/04 10:13:41;;;;;;;;;11.67;11.00;;;;;35.25;34.29;-17723.81;4999275;28;45443;-74
2022/10/04 10:16:41;;;;;;;;;12.00;11.33;;;;;35.71;32.44;-13597.97;5004328;28;47181;-73
2022/10/04 10:19:24;;;;;;;;;9.33;9.33;;;;;36.01;31.89;-9805.63;5004716;28;45599;-76
2022/10/04 10:22:20;;;;;;;;;10.00;9.00;;;;;36.15;31.06;-5313.81;4997484;28;45496;-76
2022/10/04 10:24:49;;;;;;;;;9.33;9.33;;;;;36.48;31.00;-1160.28;5008968;28;45628;-76
2022/10/04 10:27:56;;;;;;;;;12.00;7.33;;;;;36.68;30.52;5011.88;4998663;28;45488;-74
2022/10/04 10:30:30;;;;;;;;;7.33;7.33;;;;;36.82;29.29;12255.78;4919937;28;45591;-74
2022/10/04 10:33:31;;;;;;;;;9.33;9.33;;;;;37.05;29.75;14450.13;4920114;28;45384;-74
2022/10/04 10:36:27;;;;;;;;;8.00;8.00;;;;;37.18;29.13;19371.91;4926752;28;45660;-75
2022/10/04 10:39:29;;;;;;;;;11.00;8.00;;;;;37.24;28.86;22496.56;4926952;28;45634;-75
2022/10/04 10:42:08;;;;;;;;;14.67;13.67;;;;;37.20;28.22;27000.53;4906108;28;45550;-74
2022/10/04 10:45:17;;;;;;;;;8.67;8.00;;;;;37.21;27.69;28701.25;4917254;28;45376;-75
2022/10/04 10:47:55;;;;;;;;;11.33;11.00;;;;;37.20;27.81;30606.75;4921737;28;45603;-74
2022/10/04 10:50:58;;;;;;;;;11.00;10.33;;;;;37.31;27.25;31626.47;4924759;28;47111;-75
2022/10/04 10:53:47;;;;;;;;;12.67;10.67;;;;;37.17;27.52;34152.41;4923609;28;45458;-74
2022/10/04 10:56:37;;;;;;;;;12.33;11.33;;;;;37.29;27.49;35474.50;4916573;28;45468;-75
2022/10/04 10:59:22;;;;;;;;;11.67;8.00;;;;;37.27;26.73;37005.50;4903400;28;45559;-75
2022/10/04 11:01:59;;;;;;;;;12.67;10.67;;;;;37.06;26.96;38523.75;5006468;27;46262;-75
2022/10/04 11:04:48;;;;;;;;;10.33;10.33;;;;;36.65;27.21;40690.63;4994800;27;45389;-74
2022/10/04 11:07:32;;;;;;;;;9.33;9.00;;;;;36.47;27.74;41307.25;4985122;28;45431;-75
2022/10/04 11:10:46;;;;;;;;;8.00;8.00;;;;;36.28;26.94;42524.75;5000033;27;45285;-75
2022/10/04 11:13:41;;;;;;;;;13.00;12.00;;;;;35.83;27.60;44345.94;4991531;28;45662;-74
2022/10/04 11:16:40;;;;;;;;;10.00;8.75;;;;;35.64;27.22;44498.41;4991296;28;45844;-74
2022/10/04 11:19:28;;;;;;;;;10.33;8.67;;;;;35.30;27.83;45896.88;4990582;28;45401;-74
2022/10/04 11:22:08;;;;;;;;;9.67;8.00;;;;;35.01;27.80;46904.41;4984163;28;45348;-74
2022/10/04 11:25:04;;;;;;;;;10.25;7.25;;;;;34.66;28.60;47701.38;4989372;28;46641;-74
2022/10/04 11:27:54;;;;;;;;;7.25;6.75;;;;;34.46;28.26;47844.03;4994610;28;45496;-74
2022/10/04 11:30:26;;;;;;;;;9.50;8.00;;;;;34.25;28.91;48261.22;4995119;28;45674;-74
2022/10/04 11:33:19;;;;;;;;;8.25;8.25;;;;;33.85;29.47;48326.72;4990613;28;45476;-74
2022/10/04 11:36:15;;;;;;;;;13.00;11.33;;;;;33.57;30.26;48447.81;4989732;28;46040;-74
2022/10/04 11:38:59;;;;;;;;;7.67;7.67;;;;;33.30;30.42;48295.00;4984723;28;45907;-74
2022/10/04 11:41:49;;;;;;;;;7.00;7.00;;;;;32.70;30.72;49237.69;4990134;28;45380;-74
2022/10/04 11:44:29;;;;;;;;;10.00;9.33;;;;;32.58;30.79;48554.94;4985888;28;45486;-74
2022/10/04 11:47:12;;;;;;;;;9.00;8.00;;;;;32.42;30.82;48690.78;4982320;28;46238;-74
2022/10/04 11:49:43;;;;;;;;;8.33;8.33;;;;;32.10;31.51;48844.19;4992144;27;45451;-74
2022/10/04 11:52:39;;;;;;;;;7.00;6.00;;;;;31.93;31.94;48612.47;4974501;28;45361;-74
2022/10/04 11:55:30;;;;;;;;;11.33;8.00;;;;;31.30;33.10;46470.75;4988586;27;45487;-74
2022/10/04 11:58:13;;;;;;;;;10.00;7.67;;;;;31.00;33.25;46927.59;4973627;28;47680;-74
2022/10/04 12:01:06;;;;;;;;;9.67;7.67;;;;;31.36;32.82;46265.56;4981356;27;45710;-74
2022/10/04 12:03:59;;;;;;;;;6.00;6.00;;;;;31.18;33.02;45836.22;4993922;28;45291;-74
2022/10/04 12:06:33;;;;;;;;;7.00;7.00;;;;;30.98;33.21;46423.47;4994014;27;45529;-74
2022/10/04 12:09:28;;;;;;;;;8.00;6.00;;;;;31.06;33.38;44925.47;4992476;28;48196;-74
2022/10/04 12:12:36;;;;;;;;;8.33;7.00;;;;;31.13;33.44;44637.31;4977994;28;46443;-73
2022/10/04 12:15:34;;;;;;;;;6.33;6.33;;;;;31.08;33.49;44908.03;4993890;27;45306;-74
2022/10/04 12:18:31;;;;;;;;;9.00;7.67;;;;;30.98;33.63;44721.00;4994232;27;45293;-74
2022/10/04 12:21:00;;;;;;;;;8.00;8.00;;;;;30.84;33.64;44314.22;5013882;28;46549;-73
2022/10/04 12:23:44;;;;;;;;;9.67;8.67;;;;;30.80;33.55;44326.97;5014084;28;45401;-74
2022/10/04 12:26:32;;;;;;;;;9.00;9.00;;;;;30.63;34.19;43785.19;5014282;28;45415;-74